Time;durP1;ratioP1;P1;durP2;ratioP2;P2;SDS_P1;SDS_P2;PMS_P1;PMS_P2;Temp;Humidity;BMP_temperature;BMP_pressure;BME280_temperature;BME280_humidity;BME280_pressure;Samples;Min_cycle;Max_cycle;Signal;HPM_P1;HPM_P2
2023/08/17 00:00:30;;;;;;;5.55;1.90;;;;;;;;;;4948484;28;20215;-62
2023/08/17 00:02:57;;;;;;;2.28;2.10;;;;;;;;;;4947955;28;20207;-65
2023/08/17 00:05:26;;;;;;;2.47;2.38;;;;;;;;;;4947124;29;20237;-63
2023/08/17 00:07:53;;;;;;;2.08;2.08;;;;;;;;;;4942363;28;20304;-62
2023/08/17 00:10:20;;;;;;;2.28;2.17;;;;;;;;;;4939498;28;20673;-63
2023/08/17 00:12:48;;;;;;;3.40;2.28;;;;;;;;;;4936770;28;20893;-62
2023/08/17 00:15:15;;;;;;;3.47;2.50;;;;;;;;;;4939447;29;20280;-62
2023/08/17 00:17:42;;;;;;;4.85;1.95;;;;;;;;;;4940129;28;20211;-62
2023/08/17 00:20:10;;;;;;;2.13;2.03;;;;;;;;;;4940589;28;20212;-62
2023/08/17 00:22:38;;;;;;;2.28;2.13;;;;;;;;;;4939616;29;20652;-62
2023/08/17 00:25:06;;;;;;;2.55;1.83;;;;;;;;;;4939580;29;20796;-63
2023/08/17 00:27:33;;;;;;;3.05;2.13;;;;;;;;;;4940198;28;20239;-62
2023/08/17 00:30:00;;;;;;;2.60;2.10;;;;;;;;;;4940098;29;20333;-62
2023/08/17 00:32:27;;;;;;;3.00;2.00;;;;;;;;;;4941086;29;20611;-63
2023/08/17 00:34:54;;;;;;;3.58;1.70;;;;;;;;;;4937231;28;20586;-62
2023/08/17 00:37:21;;;;;;;1.70;1.70;;;;;;;;;;4941294;28;20634;-62
2023/08/17 00:39:50;;;;;;;3.42;1.90;;;;;;;;;;4938974;28;20700;-62
2023/08/17 00:42:17;;;;;;;1.90;1.90;;;;;;;;;;4939023;28;20666;-62
2023/08/17 00:44:44;;;;;;;3.28;2.40;;;;;;;;;;4940593;28;20214;-65
2023/08/17 00:47:11;;;;;;;2.45;2.15;;;;;;;;;;4942123;28;20215;-62
2023/08/17 00:49:38;;;;;;;1.98;1.85;;;;;;;;;;4937345;29;20279;-62
2023/08/17 00:52:05;;;;;;;2.13;2.10;;;;;;;;;;4940209;28;20206;-62
2023/08/17 00:54:32;;;;;;;4.13;1.88;;;;;;;;;;4936910;28;20487;-62
2023/08/17 00:57:03;;;;;;;1.42;1.42;;;;;;;;;;4939451;29;20214;-62
2023/08/17 00:59:30;;;;;;;3.13;2.22;;;;;;;;;;4934414;28;21233;-62
2023/08/17 01:01:57;;;;;;;3.13;2.30;;;;;;;;;;4936888;28;20207;-61
2023/08/17 01:04:24;;;;;;;2.05;2.05;;;;;;;;;;4938457;28;20212;-62
2023/08/17 01:06:53;;;;;;;1.95;1.83;;;;;;;;;;4938366;28;20234;-62
2023/08/17 01:09:20;;;;;;;3.90;1.90;;;;;;;;;;4938532;28;20214;-63
2023/08/17 01:12:01;;;;;;;1.98;1.92;;;;;;;;;;4937548;29;20200;-62
2023/08/17 01:14:33;;;;;;;4.45;2.08;;;;;;;;;;4938212;29;20203;-63
2023/08/17 01:17:05;;;;;;;2.20;2.00;;;;;;;;;;4939708;28;20207;-62
2023/08/17 01:19:32;;;;;;;3.83;2.00;;;;;;;;;;4939373;28;20622;-62
2023/08/17 01:22:02;;;;;;;2.03;2.03;;;;;;;;;;4939728;28;20211;-63
2023/08/17 01:24:30;;;;;;;3.88;1.80;;;;;;;;;;4938454;28;20237;-63
2023/08/17 01:26:57;;;;;;;5.03;2.60;;;;;;;;;;4942717;28;20784;-63
2023/08/17 01:29:24;;;;;;;4.95;2.63;;;;;;;;;;4937881;28;20250;-62
2023/08/17 01:31:54;;;;;;;2.60;2.00;;;;;;;;;;4937333;29;20214;-62
2023/08/17 01:34:24;;;;;;;2.80;2.28;;;;;;;;;;4937014;28;20636;-62
2023/08/17 01:36:54;;;;;;;2.95;2.22;;;;;;;;;;4937124;28;20204;-62
2023/08/17 01:39:23;;;;;;;3.25;1.90;;;;;;;;;;4944858;29;20229;-62
2023/08/17 01:41:52;;;;;;;3.03;2.83;;;;;;;;;;4947306;28;20203;-62
2023/08/17 01:44:20;;;;;;;6.30;3.15;;;;;;;;;;4946172;28;20583;-63
2023/08/17 01:46:47;;;;;;;2.97;2.70;;;;;;;;;;4947213;28;20238;-64
2023/08/17 01:49:14;;;;;;;7.68;3.20;;;;;;;;;;4947813;28;20301;-64
2023/08/17 01:51:41;;;;;;;6.78;2.80;;;;;;;;;;4947571;28;20210;-63
2023/08/17 01:54:08;;;;;;;5.25;2.75;;;;;;;;;;4947376;28;20215;-63
2023/08/17 01:56:35;;;;;;;7.93;2.83;;;;;;;;;;4946992;28;20202;-63
2023/08/17 01:59:04;;;;;;;8.25;2.40;;;;;;;;;;4946351;28;20222;-63
2023/08/17 02:01:31;;;;;;;3.13;2.17;;;;;;;;;;4946727;28;20210;-63
2023/08/17 02:04:01;;;;;;;4.85;2.35;;;;;;;;;;4948726;28;20199;-63
2023/08/17 02:06:28;;;;;;;3.08;2.80;;;;;;;;;;4950442;29;20328;-63
2023/08/17 02:08:56;;;;;;;3.28;3.08;;;;;;;;;;4950260;28;20603;-63
2023/08/17 02:11:23;;;;;;;13.25;3.60;;;;;;;;;;4950760;28;20207;-62
2023/08/17 02:13:50;;;;;;;3.58;3.28;;;;;;;;;;4949593;28;20278;-63
2023/08/17 02:16:18;;;;;;;3.63;3.38;;;;;;;;;;4949760;29;20211;-63
2023/08/17 02:18:45;;;;;;;6.88;4.68;;;;;;;;;;4950348;28;20214;-63
2023/08/17 02:21:12;;;;;;;5.45;4.70;;;;;;;;;;4950165;28;20269;-63
2023/08/17 02:23:39;;;;;;;6.40;3.85;;;;;;;;;;4949807;28;20222;-63
2023/08/17 02:26:06;;;;;;;4.22;3.83;;;;;;;;;;4950004;28;20243;-63
2023/08/17 02:28:33;;;;;;;5.47;5.07;;;;;;;;;;4945580;28;20231;-63
2023/08/17 02:31:00;;;;;;;5.85;4.68;;;;;;;;;;4934940;29;20278;-63
2023/08/17 02:33:29;;;;;;;4.95;4.43;;;;;;;;;;4949807;28;20312;-63
2023/08/17 02:35:56;;;;;;;4.43;4.13;;;;;;;;;;4949399;28;20195;-63
2023/08/17 02:38:23;;;;;;;5.03;3.65;;;;;;;;;;4949312;28;20207;-63
2023/08/17 02:40:50;;;;;;;3.38;3.08;;;;;;;;;;4949913;28;20211;-63
2023/08/17 02:43:18;;;;;;;3.58;3.33;;;;;;;;;;4948671;28;20211;-63
2023/08/17 02:45:45;;;;;;;3.58;3.28;;;;;;;;;;4941606;28;20349;-64
2023/08/17 02:48:12;;;;;;;3.67;3.40;;;;;;;;;;4941068;28;20596;-63
2023/08/17 02:50:41;;;;;;;4.22;3.33;;;;;;;;;;4946310;28;20674;-63
2023/08/17 02:53:08;;;;;;;2.90;2.70;;;;;;;;;;4941633;28;20924;-63
2023/08/17 02:55:35;;;;;;;2.85;2.60;;;;;;;;;;4943052;28;20211;-63
2023/08/17 02:58:02;;;;;;;3.72;2.78;;;;;;;;;;4941532;29;20686;-63
2023/08/17 03:00:29;;;;;;;2.67;2.53;;;;;;;;;;4939059;28;20442;-63
2023/08/17 03:02:56;;;;;;;4.07;2.97;;;;;;;;;;4942466;28;20214;-63
2023/08/17 03:05:23;;;;;;;2.83;2.72;;;;;;;;;;4941303;28;20200;-63
2023/08/17 03:07:52;;;;;;;2.50;2.38;;;;;;;;;;4939590;28;20211;-63
2023/08/17 03:10:19;;;;;;;3.17;3.08;;;;;;;;;;4941080;28;20715;-63
2023/08/17 03:12:46;;;;;;;2.80;2.70;;;;;;;;;;4939169;29;20211;-63
2023/08/17 03:15:13;;;;;;;2.97;2.88;;;;;;;;;;4939485;28;20218;-63
2023/08/17 03:17:40;;;;;;;3.47;3.17;;;;;;;;;;4940884;28;20204;-63
2023/08/17 03:20:07;;;;;;;4.25;3.08;;;;;;;;;;4941526;29;20317;-63
2023/08/17 03:22:34;;;;;;;3.33;3.10;;;;;;;;;;4939640;28;20584;-63
2023/08/17 03:25:03;;;;;;;3.08;2.95;;;;;;;;;;4942454;29;20210;-63
2023/08/17 03:27:30;;;;;;;3.72;3.53;;;;;;;;;;4940399;29;20337;-63
2023/08/17 03:29:57;;;;;;;3.97;3.42;;;;;;;;;;4938131;29;20293;-63
2023/08/17 03:32:24;;;;;;;4.22;3.30;;;;;;;;;;4940218;29;20211;-63
2023/08/17 03:34:51;;;;;;;3.05;2.95;;;;;;;;;;4942696;28;20286;-63
2023/08/17 03:37:19;;;;;;;4.45;3.78;;;;;;;;;;4938094;29;20203;-63
2023/08/17 03:39:46;;;;;;;4.35;3.95;;;;;;;;;;4940267;29;20211;-63
2023/08/17 03:42:14;;;;;;;4.40;4.00;;;;;;;;;;4942420;28;20219;-63
2023/08/17 03:44:41;;;;;;;4.10;3.90;;;;;;;;;;4944353;28;20218;-63
2023/08/17 03:47:08;;;;;;;4.28;3.88;;;;;;;;;;4946309;29;20709;-63
2023/08/17 03:49:35;;;;;;;4.00;3.70;;;;;;;;;;4949924;29;20226;-63
2023/08/17 03:52:02;;;;;;;5.80;3.85;;;;;;;;;;4949897;28;20219;-63
2023/08/17 03:54:29;;;;;;;4.03;3.72;;;;;;;;;;4950549;28;20585;-63
2023/08/17 03:56:56;;;;;;;4.50;4.10;;;;;;;;;;4949624;28;20207;-63
2023/08/17 03:59:25;;;;;;;4.45;3.50;;;;;;;;;;4949965;28;20203;-62
2023/08/17 04:01:52;;;;;;;4.53;3.72;;;;;;;;;;4950256;28;20298;-63
2023/08/17 04:04:19;;;;;;;4.00;3.65;;;;;;;;;;4949613;28;20211;-63
2023/08/17 04:06:46;;;;;;;3.60;3.40;;;;;;;;;;4949191;28;20226;-63
2023/08/17 04:09:13;;;;;;;4.25;3.92;;;;;;;;;;4950267;28;20245;-63
2023/08/17 04:11:40;;;;;;;4.00;3.70;;;;;;;;;;4949794;28;20218;-63
2023/08/17 04:14:08;;;;;;;4.38;3.80;;;;;;;;;;4943854;28;20588;-63
2023/08/17 04:16:37;;;;;;;3.97;3.72;;;;;;;;;;4949287;28;20211;-63
2023/08/17 04:19:04;;;;;;;3.67;3.47;;;;;;;;;;4949738;28;20221;-63
2023/08/17 04:21:31;;;;;;;5.13;4.28;;;;;;;;;;4949332;28;20199;-63
2023/08/17 04:23:58;;;;;;;3.88;3.47;;;;;;;;;;4949472;29;20215;-63
2023/08/17 04:26:25;;;;;;;3.80;3.60;;;;;;;;;;4948078;28;20231;-64
2023/08/17 04:28:52;;;;;;;4.72;4.00;;;;;;;;;;4948601;28;20238;-63
2023/08/17 04:31:20;;;;;;;4.00;3.70;;;;;;;;;;4949730;28;20250;-63
2023/08/17 04:33:48;;;;;;;4.18;3.65;;;;;;;;;;4941077;28;20216;-63
2023/08/17 04:36:15;;;;;;;3.35;3.20;;;;;;;;;;4946390;29;20199;-63
2023/08/17 04:38:48;;;;;;;7.43;3.75;;;;;;;;;;4949800;28;20211;-63
2023/08/17 04:41:15;;;;;;;4.68;4.07;;;;;;;;;;4949545;28;20214;-63
2023/08/17 04:43:42;;;;;;;3.92;3.53;;;;;;;;;;4948740;28;20207;-63
2023/08/17 04:46:09;;;;;;;5.28;3.92;;;;;;;;;;4949307;28;20223;-63
2023/08/17 04:48:37;;;;;;;3.75;3.53;;;;;;;;;;4949742;28;20218;-62
2023/08/17 04:51:05;;;;;;;4.53;3.80;;;;;;;;;;4949520;28;20218;-63
2023/08/17 04:53:32;;;;;;;4.55;3.80;;;;;;;;;;4949678;28;20218;-63
2023/08/17 04:56:00;;;;;;;4.60;3.97;;;;;;;;;;4949689;28;20636;-63
2023/08/17 04:58:27;;;;;;;4.35;4.05;;;;;;;;;;4949079;28;20685;-63
2023/08/17 05:00:54;;;;;;;4.40;4.00;;;;;;;;;;4949328;28;20214;-63
2023/08/17 05:03:21;;;;;;;4.35;3.95;;;;;;;;;;4949529;28;20215;-63
2023/08/17 05:05:48;;;;;;;4.18;3.72;;;;;;;;;;4949028;28;20221;-63
2023/08/17 05:08:16;;;;;;;4.25;3.95;;;;;;;;;;4949045;29;20215;-63
2023/08/17 05:10:43;;;;;;;4.28;3.95;;;;;;;;;;4949567;28;20215;-63
2023/08/17 05:13:10;;;;;;;4.32;3.65;;;;;;;;;;4948143;28;20203;-63
2023/08/17 05:15:37;;;;;;;3.78;3.58;;;;;;;;;;4948880;28;20210;-63
2023/08/17 05:18:04;;;;;;;3.58;3.25;;;;;;;;;;4945824;28;20245;-63
2023/08/17 05:20:32;;;;;;;5.00;4.30;;;;;;;;;;4948850;28;20211;-62
2023/08/17 05:22:59;;;;;;;6.05;3.85;;;;;;;;;;4949037;28;20215;-63
2023/08/17 05:25:29;;;;;;;7.18;3.75;;;;;;;;;;4948554;28;20226;-63
2023/08/17 05:27:56;;;;;;;5.10;3.25;;;;;;;;;;4943473;28;20597;-63
2023/08/17 05:30:23;;;;;;;5.00;3.35;;;;;;;;;;4948408;28;20243;-63
2023/08/17 05:32:50;;;;;;;4.00;3.50;;;;;;;;;;4949068;28;20222;-63
2023/08/17 05:35:17;;;;;;;5.05;3.90;;;;;;;;;;4948554;28;20629;-63
2023/08/17 05:37:44;;;;;;;3.75;3.22;;;;;;;;;;4947570;28;20313;-63
2023/08/17 05:40:12;;;;;;;4.38;4.07;;;;;;;;;;4948956;28;20320;-63
2023/08/17 05:42:40;;;;;;;3.95;3.58;;;;;;;;;;4948023;28;20215;-63
2023/08/17 05:45:08;;;;;;;3.70;3.50;;;;;;;;;;4947750;28;20340;-63
2023/08/17 05:47:35;;;;;;;3.75;3.50;;;;;;;;;;4948188;28;20599;-63
2023/08/17 05:50:02;;;;;;;5.30;3.50;;;;;;;;;;4948494;28;20581;-63
2023/08/17 05:52:29;;;;;;;3.90;3.20;;;;;;;;;;4948495;28;20219;-63
2023/08/17 05:54:56;;;;;;;3.38;3.17;;;;;;;;;;4948522;28;20215;-62
2023/08/17 05:57:23;;;;;;;3.20;2.90;;;;;;;;;;4947117;28;20217;-65
2023/08/17 05:59:52;;;;;;;6.78;3.50;;;;;;;;;;4947058;28;20214;-64
2023/08/17 06:02:19;;;;;;;4.40;3.13;;;;;;;;;;4947521;28;20238;-64
2023/08/17 06:04:46;;;;;;;3.65;3.33;;;;;;;;;;4945577;28;20215;-63
2023/08/17 06:07:13;;;;;;;3.88;3.53;;;;;;;;;;4947276;28;20227;-63
2023/08/17 06:09:40;;;;;;;4.88;3.90;;;;;;;;;;4947862;28;20218;-63
2023/08/17 06:12:07;;;;;;;5.40;4.20;;;;;;;;;;4947268;28;20715;-63
2023/08/17 06:14:35;;;;;;;5.68;3.90;;;;;;;;;;4945442;28;20218;-63
2023/08/17 06:17:03;;;;;;;4.93;4.43;;;;;;;;;;4945797;28;20230;-69
2023/08/17 06:19:30;;;;;;;4.38;3.85;;;;;;;;;;4947326;28;20227;-69
2023/08/17 06:21:58;;;;;;;7.50;5.95;;;;;;;;;;4947160;28;20219;-68
2023/08/17 06:24:25;;;;;;;9.68;6.07;;;;;;;;;;4941929;28;20203;-69
2023/08/17 06:26:52;;;;;;;5.32;4.82;;;;;;;;;;4946919;28;20585;-69
2023/08/17 06:29:19;;;;;;;8.20;4.93;;;;;;;;;;4946743;28;20259;-69
2023/08/17 06:31:46;;;;;;;6.65;5.72;;;;;;;;;;4947842;28;20221;-69
2023/08/17 06:34:15;;;;;;;8.75;6.55;;;;;;;;;;4947062;28;20325;-69
2023/08/17 06:36:42;;;;;;;11.25;6.50;;;;;;;;;;4946909;28;20199;-69
2023/08/17 06:39:09;;;;;;;10.55;7.30;;;;;;;;;;4947297;28;20208;-69
2023/08/17 06:41:36;;;;;;;9.00;7.70;;;;;;;;;;4947295;28;20223;-69
2023/08/17 06:44:03;;;;;;;9.50;6.82;;;;;;;;;;4946775;28;20219;-69
2023/08/17 06:46:30;;;;;;;8.30;7.40;;;;;;;;;;4947381;28;20211;-69
2023/08/17 06:48:57;;;;;;;9.15;7.47;;;;;;;;;;4946807;28;20569;-69
2023/08/17 06:51:26;;;;;;;11.27;7.82;;;;;;;;;;4949582;28;20215;-69
2023/08/17 06:53:53;;;;;;;10.23;7.03;;;;;;;;;;4950626;28;20215;-69
2023/08/17 06:56:20;;;;;;;10.90;7.22;;;;;;;;;;4950790;28;20214;-69
2023/08/17 06:58:47;;;;;;;9.73;7.38;;;;;;;;;;4950633;28;20210;-69
2023/08/17 07:01:14;;;;;;;8.52;6.30;;;;;;;;;;4951611;28;20599;-68
2023/08/17 07:03:41;;;;;;;8.05;6.07;;;;;;;;;;4950839;28;20243;-69
2023/08/17 07:06:08;;;;;;;5.43;4.95;;;;;;;;;;4951002;28;20222;-69
2023/08/17 07:08:38;;;;;;;7.00;5.05;;;;;;;;;;4950909;28;20242;-69
2023/08/17 07:11:08;;;;;;;5.70;5.30;;;;;;;;;;4951298;28;20318;-72
2023/08/17 07:13:35;;;;;;;8.50;5.15;;;;;;;;;;4950541;28;20214;-71
2023/08/17 07:16:02;;;;;;;4.80;4.40;;;;;;;;;;4950721;28;20314;-71
2023/08/17 07:18:29;;;;;;;4.15;3.95;;;;;;;;;;4950641;28;20211;-63
2023/08/17 07:20:56;;;;;;;3.83;3.63;;;;;;;;;;4950316;28;20214;-64
2023/08/17 07:23:23;;;;;;;5.00;4.22;;;;;;;;;;4942747;28;20261;-64
2023/08/17 07:25:52;;;;;;;4.97;4.50;;;;;;;;;;4944788;28;20592;-63
2023/08/17 07:28:19;;;;;;;4.47;4.20;;;;;;;;;;4949325;28;20245;-63
2023/08/17 07:30:46;;;;;;;4.50;4.20;;;;;;;;;;4950474;28;20242;-64
2023/08/17 07:33:13;;;;;;;5.57;4.38;;;;;;;;;;4950946;28;20215;-64
2023/08/17 07:35:40;;;;;;;4.30;4.03;;;;;;;;;;4949835;28;20219;-64
2023/08/17 07:38:07;;;;;;;5.30;4.55;;;;;;;;;;4949514;28;20207;-64
2023/08/17 07:40:34;;;;;;;4.28;4.00;;;;;;;;;;4950860;28;20221;-64
2023/08/17 07:43:03;;;;;;;3.80;3.60;;;;;;;;;;4950087;28;20203;-64
2023/08/17 07:45:30;;;;;;;6.78;5.60;;;;;;;;;;4950309;28;20218;-64
2023/08/17 07:47:57;;;;;;;6.63;6.03;;;;;;;;;;4950329;28;20233;-64
2023/08/17 07:50:24;;;;;;;8.20;6.32;;;;;;;;;;4950102;28;20223;-64
2023/08/17 07:52:51;;;;;;;4.10;3.90;;;;;;;;;;4950318;28;20238;-63
2023/08/17 07:55:18;;;;;;;7.00;6.28;;;;;;;;;;4950003;28;20214;-64
2023/08/17 07:57:45;;;;;;;7.25;5.10;;;;;;;;;;4949794;28;20210;-64
2023/08/17 08:00:14;;;;;;;5.40;4.60;;;;;;;;;;4931058;29;20215;-64
2023/08/17 08:02:41;;;;;;;6.75;4.53;;;;;;;;;;4930832;29;20223;-64
2023/08/17 08:05:08;;;;;;;5.60;5.10;;;;;;;;;;4930766;29;20638;-64
2023/08/17 08:07:35;;;;;;;5.65;5.25;;;;;;;;;;4930758;29;20305;-64
2023/08/17 08:10:04;;;;;;;5.63;5.22;;;;;;;;;;4948709;29;20673;-64
2023/08/17 08:12:31;;;;;;;5.47;5.15;;;;;;;;;;4949586;28;20215;-63
2023/08/17 08:14:58;;;;;;;7.53;5.15;;;;;;;;;;4949712;28;20226;-64
2023/08/17 08:17:27;;;;;;;6.40;5.80;;;;;;;;;;4950031;28;20213;-63
2023/08/17 08:19:56;;;;;;;7.07;6.32;;;;;;;;;;4949093;28;20215;-64
2023/08/17 08:22:23;;;;;;;7.53;6.70;;;;;;;;;;4949427;28;20312;-64
2023/08/17 08:24:50;;;;;;;7.18;6.57;;;;;;;;;;4949350;28;20207;-63
2023/08/17 08:27:17;;;;;;;9.20;7.18;;;;;;;;;;4949441;28;20242;-64
2023/08/17 08:29:44;;;;;;;8.95;7.45;;;;;;;;;;4946256;28;20264;-63
2023/08/17 08:32:11;;;;;;;7.72;7.03;;;;;;;;;;4948099;28;20221;-64
2023/08/17 08:34:41;;;;;;;7.90;7.15;;;;;;;;;;4949378;28;20649;-63
2023/08/17 08:37:08;;;;;;;7.75;7.03;;;;;;;;;;4949365;28;20363;-63
2023/08/17 08:39:49;;;;;;;7.72;7.00;;;;;;;;;;4949478;28;20218;-63
2023/08/17 08:42:16;;;;;;;7.72;6.95;;;;;;;;;;4942287;28;20212;-63
2023/08/17 08:44:43;;;;;;;12.32;8.75;;;;;;;;;;4929942;29;20274;-64
2023/08/17 08:47:11;;;;;;;10.13;8.25;;;;;;;;;;4944775;28;20219;-63
2023/08/17 08:49:40;;;;;;;9.15;8.27;;;;;;;;;;4948633;28;20207;-63
2023/08/17 08:52:09;;;;;;;8.93;8.13;;;;;;;;;;4948408;28;20744;-64
2023/08/17 08:54:41;;;;;;;8.43;7.72;;;;;;;;;;4949393;28;20303;-64
2023/08/17 08:57:13;;;;;;;8.15;7.43;;;;;;;;;;4949213;28;20219;-68
2023/08/17 08:59:44;;;;;;;9.23;8.43;;;;;;;;;;4946370;28;20222;-69
2023/08/17 09:02:12;;;;;;;8.75;7.70;;;;;;;;;;4946919;28;20603;-69
2023/08/17 09:04:40;;;;;;;8.88;8.18;;;;;;;;;;4947617;28;20226;-68
2023/08/17 09:07:07;;;;;;;9.30;8.40;;;;;;;;;;4948382;28;20214;-69
2023/08/17 09:09:35;;;;;;;7.95;7.25;;;;;;;;;;4948497;28;20203;-68
2023/08/17 09:12:03;;;;;;;7.70;7.00;;;;;;;;;;4948544;28;20211;-68
2023/08/17 09:14:30;;;;;;;9.15;8.32;;;;;;;;;;4947728;28;20713;-68
2023/08/17 09:16:58;;;;;;;8.25;7.45;;;;;;;;;;4947091;28;20290;-69
2023/08/17 09:19:26;;;;;;;8.38;7.57;;;;;;;;;;4948500;28;20199;-68
2023/08/17 09:21:54;;;;;;;7.35;6.82;;;;;;;;;;4948397;28;20243;-69
2023/08/17 09:24:21;;;;;;;6.75;6.28;;;;;;;;;;4948639;28;20207;-68
2023/08/17 09:26:50;;;;;;;7.10;6.60;;;;;;;;;;4948979;28;20222;-68
2023/08/17 09:29:18;;;;;;;9.50;6.18;;;;;;;;;;4947939;28;20250;-68
2023/08/17 09:31:45;;;;;;;5.38;5.07;;;;;;;;;;4948619;28;20570;-64
2023/08/17 09:34:12;;;;;;;4.95;4.75;;;;;;;;;;4948808;28;20246;-74
2023/08/17 09:36:40;;;;;;;5.97;5.57;;;;;;;;;;4948684;28;20223;-69
2023/08/17 09:39:09;;;;;;;5.40;4.95;;;;;;;;;;4948619;28;20297;-68
2023/08/17 09:41:40;;;;;;;4.97;4.70;;;;;;;;;;4948596;28;20593;-68
2023/08/17 09:44:08;;;;;;;5.30;5.00;;;;;;;;;;4948429;28;20207;-68
2023/08/17 09:46:35;;;;;;;4.95;4.55;;;;;;;;;;4948275;28;20223;-68
2023/08/17 09:49:05;;;;;;;4.65;4.45;;;;;;;;;;4948475;28;20721;-69
2023/08/17 09:51:32;;;;;;;5.05;4.65;;;;;;;;;;4948372;28;20230;-68
2023/08/17 09:53:59;;;;;;;4.55;4.35;;;;;;;;;;4948121;28;20219;-68
2023/08/17 09:56:28;;;;;;;4.90;4.70;;;;;;;;;;4947409;28;20720;-69
2023/08/17 09:58:56;;;;;;;5.00;4.60;;;;;;;;;;4947853;28;20278;-69
2023/08/17 10:01:23;;;;;;;4.60;4.30;;;;;;;;;;4947766;28;20230;-68
2023/08/17 10:03:51;;;;;;;3.95;3.85;;;;;;;;;;4947342;28;20249;-69
2023/08/17 10:06:22;;;;;;;3.60;3.45;;;;;;;;;;4948001;28;20238;-68
2023/08/17 10:08:51;;;;;;;3.53;3.42;;;;;;;;;;4947747;28;20245;-69
2023/08/17 10:11:20;;;;;;;3.38;3.28;;;;;;;;;;4947572;28;20210;-69
2023/08/17 10:13:52;;;;;;;3.30;3.20;;;;;;;;;;4928074;29;20243;-69
2023/08/17 10:16:24;;;;;;;3.75;3.63;;;;;;;;;;4928166;29;20678;-69
2023/08/17 10:18:58;;;;;;;3.70;3.50;;;;;;;;;;4928499;29;20216;-69
2023/08/17 10:21:28;;;;;;;3.08;2.92;;;;;;;;;;4937090;29;20222;-70
2023/08/17 10:23:57;;;;;;;3.95;3.78;;;;;;;;;;4947687;28;20714;-70
2023/08/17 10:26:24;;;;;;;3.53;3.42;;;;;;;;;;4951417;28;20238;-69
2023/08/17 10:28:54;;;;;;;3.40;3.28;;;;;;;;;;4951431;28;20334;-69
2023/08/17 10:31:22;;;;;;;3.80;3.42;;;;;;;;;;4950477;28;20581;-69
2023/08/17 10:33:49;;;;;;;3.90;3.67;;;;;;;;;;4950756;28;20227;-69
2023/08/17 10:36:16;;;;;;;3.42;3.22;;;;;;;;;;4951101;28;20214;-69
2023/08/17 10:38:43;;;;;;;3.22;3.10;;;;;;;;;;4950124;28;20210;-70
2023/08/17 10:41:11;;;;;;;2.78;2.78;;;;;;;;;;4950638;28;20203;-70
2023/08/17 10:43:59;;;;;;;3.20;3.10;;;;;;;;;;4949257;28;20780;-67
2023/08/17 10:46:34;;;;;;;3.13;2.92;;;;;;;;;;4949009;28;20219;-69
2023/08/17 10:49:02;;;;;;;3.30;3.20;;;;;;;;;;4949512;28;20330;-66
2023/08/17 10:51:30;;;;;;;3.03;2.92;;;;;;;;;;4948760;28;20281;-70
2023/08/17 10:53:59;;;;;;;3.40;3.22;;;;;;;;;;4946849;28;20421;-67
2023/08/17 10:56:28;;;;;;;3.15;3.00;;;;;;;;;;4950955;28;20274;-69
2023/08/17 10:58:56;;;;;;;3.10;2.90;;;;;;;;;;4950756;28;20211;-67
2023/08/17 11:01:35;;;;;;;3.15;2.92;;;;;;;;;;4948420;28;20309;-67
2023/08/17 11:04:12;;;;;;;2.50;2.42;;;;;;;;;;4949059;28;20203;-68
2023/08/17 11:06:39;;;;;;;2.63;2.50;;;;;;;;;;4950480;28;20215;-67
2023/08/17 11:09:08;;;;;;;2.97;2.78;;;;;;;;;;4951015;28;20231;-69
2023/08/17 11:11:35;;;;;;;4.97;2.88;;;;;;;;;;4948051;28;20246;-67
2023/08/17 11:14:03;;;;;;;2.80;2.70;;;;;;;;;;4950140;28;20214;-67
2023/08/17 11:16:30;;;;;;;2.72;2.63;;;;;;;;;;4950330;28;20214;-68
2023/08/17 11:19:11;;;;;;;2.60;2.50;;;;;;;;;;4950183;28;20233;-70
2023/08/17 11:21:39;;;;;;;2.83;2.60;;;;;;;;;;4950263;28;20341;-67
2023/08/17 11:24:09;;;;;;;2.25;2.25;;;;;;;;;;4949713;28;20215;-69
2023/08/17 11:26:37;;;;;;;2.53;2.33;;;;;;;;;;4949966;28;20551;-67
2023/08/17 11:29:05;;;;;;;2.38;2.28;;;;;;;;;;4949273;28;20249;-68
2023/08/17 11:31:33;;;;;;;5.07;2.40;;;;;;;;;;4949617;28;20646;-68
2023/08/17 11:34:02;;;;;;;2.33;2.22;;;;;;;;;;4950062;28;20289;-68
2023/08/17 11:36:30;;;;;;;2.20;2.20;;;;;;;;;;4949014;28;20219;-68
2023/08/17 11:38:59;;;;;;;1.90;1.83;;;;;;;;;;4950018;28;20210;-68
2023/08/17 11:41:26;;;;;;;2.00;2.00;;;;;;;;;;4949863;28;20222;-67
2023/08/17 11:43:55;;;;;;;2.30;2.20;;;;;;;;;;4949189;28;20207;-68
2023/08/17 11:46:22;;;;;;;2.13;2.03;;;;;;;;;;4949242;28;20305;-68
2023/08/17 11:48:50;;;;;;;2.58;2.38;;;;;;;;;;4949395;28;20772;-69
2023/08/17 11:51:17;;;;;;;2.15;1.83;;;;;;;;;;4949191;28;20226;-69
2023/08/17 11:53:46;;;;;;;2.60;2.40;;;;;;;;;;4949154;28;20214;-69
2023/08/17 11:56:13;;;;;;;4.07;2.65;;;;;;;;;;4949672;28;20277;-69
2023/08/17 11:58:44;;;;;;;1.95;1.85;;;;;;;;;;4947899;28;20218;-69
2023/08/17 12:01:12;;;;;;;2.00;2.00;;;;;;;;;;4949056;28;20215;-68
2023/08/17 12:03:40;;;;;;;2.05;1.88;;;;;;;;;;4948270;28;20249;-67
2023/08/17 12:06:07;;;;;;;1.98;1.90;;;;;;;;;;4948772;28;20211;-68
2023/08/17 12:08:34;;;;;;;2.25;1.90;;;;;;;;;;4948720;28;20242;-68
2023/08/17 12:11:03;;;;;;;1.88;1.88;;;;;;;;;;4949069;28;20391;-67
2023/08/17 12:13:31;;;;;;;1.92;1.83;;;;;;;;;;4949731;28;20238;-68
2023/08/17 12:15:58;;;;;;;2.40;2.10;;;;;;;;;;4945898;28;20210;-68
2023/08/17 12:18:26;;;;;;;2.20;2.10;;;;;;;;;;4947094;28;20219;-68
2023/08/17 12:20:54;;;;;;;2.08;1.90;;;;;;;;;;4949209;28;20591;-68
2023/08/17 12:23:21;;;;;;;1.92;1.80;;;;;;;;;;4948868;28;20226;-68
2023/08/17 12:25:53;;;;;;;2.15;1.77;;;;;;;;;;4948708;28;20219;-68
2023/08/17 12:28:22;;;;;;;1.70;1.70;;;;;;;;;;4948533;28;20239;-68
2023/08/17 12:30:49;;;;;;;4.47;2.00;;;;;;;;;;4948243;28;20242;-68
2023/08/17 12:33:16;;;;;;;4.93;1.90;;;;;;;;;;4946436;28;20214;-68
2023/08/17 12:35:43;;;;;;;1.35;1.30;;;;;;;;;;4948587;28;20203;-68
2023/08/17 12:38:10;;;;;;;1.40;1.40;;;;;;;;;;4945460;28;20218;-69
2023/08/17 12:40:37;;;;;;;1.63;1.50;;;;;;;;;;4945880;28;20985;-69
2023/08/17 12:43:04;;;;;;;1.50;1.35;;;;;;;;;;4945369;28;20207;-69
2023/08/17 12:45:32;;;;;;;1.55;1.55;;;;;;;;;;4949325;28;20215;-69
2023/08/17 12:47:59;;;;;;;2.15;1.52;;;;;;;;;;4946022;28;20215;-69
2023/08/17 12:50:26;;;;;;;1.60;1.60;;;;;;;;;;4947443;28;20448;-69
2023/08/17 12:52:53;;;;;;;1.50;1.50;;;;;;;;;;4949181;28;20678;-69
2023/08/17 12:55:20;;;;;;;1.65;1.65;;;;;;;;;;4947335;28;20211;-69
2023/08/17 12:57:47;;;;;;;1.80;1.70;;;;;;;;;;4947533;28;20402;-68
2023/08/17 13:00:15;;;;;;;2.08;1.98;;;;;;;;;;4949364;28;20230;-69
2023/08/17 13:02:45;;;;;;;1.77;1.70;;;;;;;;;;4939828;28;20234;-69
2023/08/17 13:05:12;;;;;;;1.48;1.40;;;;;;;;;;4947630;28;20222;-68
2023/08/17 13:07:39;;;;;;;1.75;1.75;;;;;;;;;;4948298;28;20222;-68
2023/08/17 13:10:07;;;;;;;2.10;2.05;;;;;;;;;;4948927;28;20234;-69
2023/08/17 13:12:34;;;;;;;1.98;1.98;;;;;;;;;;4948041;28;20219;-69
2023/08/17 13:15:01;;;;;;;1.83;1.73;;;;;;;;;;4948614;28;20226;-69
2023/08/17 13:17:28;;;;;;;2.03;1.92;;;;;;;;;;4948875;28;20246;-69
2023/08/17 13:19:56;;;;;;;1.95;1.63;;;;;;;;;;4946637;28;20261;-68
2023/08/17 13:22:23;;;;;;;3.38;1.73;;;;;;;;;;4938289;28;20282;-68
2023/08/17 13:24:50;;;;;;;2.08;1.98;;;;;;;;;;4938502;29;20214;-68
2023/08/17 13:27:17;;;;;;;2.25;2.13;;;;;;;;;;4938121;28;20667;-68
2023/08/17 13:29:44;;;;;;;6.55;1.80;;;;;;;;;;4948095;28;20308;-67
2023/08/17 13:32:11;;;;;;;1.95;1.80;;;;;;;;;;4944983;28;20677;-68
2023/08/17 13:34:38;;;;;;;1.70;1.60;;;;;;;;;;4948145;28;20214;-67
2023/08/17 13:37:07;;;;;;;2.88;1.90;;;;;;;;;;4948712;28;20219;-68
2023/08/17 13:39:34;;;;;;;1.52;1.48;;;;;;;;;;4945823;28;20203;-68
2023/08/17 13:42:01;;;;;;;1.92;1.90;;;;;;;;;;4948289;28;20684;-68
2023/08/17 13:44:28;;;;;;;2.15;1.60;;;;;;;;;;4939799;28;20211;-68
2023/08/17 13:46:58;;;;;;;1.65;1.63;;;;;;;;;;4941003;28;20294;-68
2023/08/17 13:49:27;;;;;;;3.38;1.75;;;;;;;;;;4944582;28;20347;-69
2023/08/17 13:51:56;;;;;;;1.88;1.88;;;;;;;;;;4947902;28;20239;-69
2023/08/17 13:54:24;;;;;;;1.67;1.58;;;;;;;;;;4947963;28;20211;-69
2023/08/17 13:56:51;;;;;;;1.60;1.50;;;;;;;;;;4947542;28;20218;-69
2023/08/17 13:59:18;;;;;;;2.13;2.03;;;;;;;;;;4948326;28;20203;-69
2023/08/17 14:01:46;;;;;;;1.58;1.58;;;;;;;;;;4951477;28;20318;-69
2023/08/17 14:04:14;;;;;;;1.35;1.35;;;;;;;;;;4949194;28;20221;-63
2023/08/17 14:06:41;;;;;;;2.47;1.50;;;;;;;;;;4948799;28;20332;-71
2023/08/17 14:09:08;;;;;;;7.50;1.98;;;;;;;;;;4947521;28;20820;-68
2023/08/17 14:11:36;;;;;;;1.83;1.58;;;;;;;;;;4951002;28;20218;-68
2023/08/17 14:14:04;;;;;;;1.80;1.70;;;;;;;;;;4948704;28;20773;-68
2023/08/17 14:16:32;;;;;;;1.60;1.50;;;;;;;;;;4948354;28;20666;-68
2023/08/17 14:18:59;;;;;;;3.28;1.65;;;;;;;;;;4946512;28;20692;-69
2023/08/17 14:21:26;;;;;;;2.17;1.70;;;;;;;;;;4946564;28;20219;-69
2023/08/17 14:23:53;;;;;;;1.70;1.63;;;;;;;;;;4949878;28;20218;-69
2023/08/17 14:26:20;;;;;;;1.80;1.70;;;;;;;;;;4946508;28;20617;-69
2023/08/17 14:28:48;;;;;;;1.50;1.50;;;;;;;;;;4950097;28;20326;-69
2023/08/17 14:31:17;;;;;;;1.58;1.58;;;;;;;;;;4950020;28;20346;-69
2023/08/17 14:33:44;;;;;;;1.33;1.33;;;;;;;;;;4948120;28;20689;-69
2023/08/17 14:36:11;;;;;;;1.42;1.35;;;;;;;;;;4948613;28;20678;-71
2023/08/17 14:38:38;;;;;;;1.40;1.40;;;;;;;;;;4948402;28;20222;-69
2023/08/17 14:41:06;;;;;;;1.33;1.33;;;;;;;;;;4946561;28;20262;-69
2023/08/17 14:43:33;;;;;;;1.55;1.48;;;;;;;;;;4944537;28;20301;-69
2023/08/17 14:46:02;;;;;;;1.17;1.17;;;;;;;;;;4950013;28;20231;-69